Time;durP1;ratioP1;P1;durP2;ratioP2;P2;SDS_P1;SDS_P2;PMS_P1;PMS_P2;Temp;Humidity;BMP_temperature;BMP_pressure;BME280_temperature;BME280_humidity;BME280_pressure;Samples;Min_cycle;Max_cycle;Signal;HPM_P1;HPM_P2
2023/08/03 00:01:54;;;;;;;5.13;2.50;;;15.30;99.90;;;;;;4945634;29;20024;-92
2023/08/03 00:04:20;;;;;;;7.80;2.90;;;15.30;99.90;;;;;;4926148;29;20477;-94
2023/08/03 00:06:46;;;;;;;12.05;4.07;;;15.30;99.90;;;;;;4929348;29;20466;-93
2023/08/03 00:09:11;;;;;;;6.18;3.10;;;15.20;99.90;;;;;;4920137;29;20123;-93
2023/08/03 00:11:40;;;;;;;10.63;3.28;;;15.10;99.90;;;;;;4920207;29;20639;-92
2023/08/03 00:14:06;;;;;;;4.05;3.40;;;15.10;99.90;;;;;;4929815;29;20124;-93
2023/08/03 00:16:32;;;;;;;4.45;3.50;;;15.10;99.90;;;;;;4924819;29;20019;-93
2023/08/03 00:18:57;;;;;;;11.38;5.18;;;15.10;99.90;;;;;;4939031;29;20027;-94
2023/08/03 00:21:23;;;;;;;4.60;2.90;;;15.10;99.90;;;;;;4932217;29;20108;-93
2023/08/03 00:23:48;;;;;;;3.58;2.78;;;15.20;99.90;;;;;;4926129;29;20054;-91
2023/08/03 00:26:14;;;;;;;7.53;3.33;;;15.20;99.90;;;;;;4923487;29;20162;-94
2023/08/03 00:28:40;;;;;;;9.40;3.75;;;15.20;99.90;;;;;;4925042;29;20410;-91
2023/08/03 00:31:05;;;;;;;4.43;3.00;;;15.30;99.90;;;;;;4924517;29;20055;-93
2023/08/03 00:33:31;;;;;;;10.52;3.70;;;15.20;99.90;;;;;;4922426;29;20043;-91
2023/08/03 00:35:57;;;;;;;9.05;2.85;;;15.20;99.90;;;;;;4919450;29;20031;-91
2023/08/03 00:38:22;;;;;;;8.20;3.90;;;15.20;99.90;;;;;;4924087;29;20763;-91
2023/08/03 00:40:50;;;;;;;9.40;3.38;;;15.30;99.90;;;;;;4922191;28;20031;-92
2023/08/03 00:43:16;;;;;;;10.68;3.58;;;15.30;99.90;;;;;;4918190;29;20082;-93
2023/08/03 00:45:41;;;;;;;5.40;3.30;;;15.40;99.90;;;;;;4925478;29;20055;-93
2023/08/03 00:48:07;;;;;;;12.73;5.43;;;15.40;99.90;;;;;;4918646;29;20036;-94
2023/08/03 00:50:33;;;;;;;10.27;3.67;;;15.50;99.90;;;;;;4920988;29;20024;-92
2023/08/03 00:52:58;;;;;;;5.05;3.53;;;15.50;99.90;;;;;;4926107;29;20023;-93
2023/08/03 00:55:24;;;;;;;8.48;3.67;;;15.60;99.90;;;;;;4936002;29;20485;-93
2023/08/03 00:57:50;;;;;;;7.40;3.83;;;15.70;99.90;;;;;;4930002;23;20044;-87
2023/08/03 01:00:16;;;;;;;15.32;4.28;;;15.70;99.90;;;;;;4896583;29;20025;-85
2023/08/03 01:02:41;;;;;;;12.50;3.80;;;15.80;99.90;;;;;;4897103;29;20020;-86
2023/08/03 01:05:07;;;;;;;11.57;3.85;;;15.80;99.90;;;;;;4897444;29;20084;-87
2023/08/03 01:07:34;;;;;;;8.13;4.03;;;15.80;99.90;;;;;;4897917;29;20028;-86
2023/08/03 01:10:00;;;;;;;8.95;3.63;;;15.80;99.90;;;;;;4898753;29;20021;-87
2023/08/03 01:12:26;;;;;;;7.93;3.83;;;15.90;99.90;;;;;;4904449;29;20029;-86
2023/08/03 01:14:52;;;;;;;7.85;3.72;;;15.90;99.90;;;;;;4897484;29;20044;-85
2023/08/03 01:17:18;;;;;;;8.70;3.60;;;15.90;99.90;;;;;;4898908;29;20084;-89
2023/08/03 01:19:44;;;;;;;13.80;3.63;;;15.90;99.90;;;;;;4898835;29;20774;-87
2023/08/03 01:22:13;;;;;;;5.78;3.20;;;15.90;99.90;;;;;;4897152;29;20021;-87
2023/08/03 01:24:38;;;;;;;6.78;3.28;;;16.00;99.90;;;;;;4897738;29;20032;-88
2023/08/03 01:27:04;;;;;;;10.18;3.60;;;15.90;99.90;;;;;;4898585;29;20032;-86
2023/08/03 01:29:30;;;;;;;6.50;3.15;;;15.90;99.90;;;;;;4896454;29;20028;-88
2023/08/03 01:31:58;;;;;;;6.47;3.70;;;16.00;99.90;;;;;;4898295;29;20024;-88
2023/08/03 01:34:27;;;;;;;5.03;3.22;;;15.90;99.90;;;;;;4898712;29;20047;-88
2023/08/03 01:36:53;;;;;;;4.72;2.97;;;15.90;99.90;;;;;;4898628;29;20092;-86
2023/08/03 01:39:23;;;;;;;7.18;3.35;;;15.90;99.90;;;;;;4907008;29;20024;-88
2023/08/03 01:41:48;;;;;;;7.55;2.95;;;15.90;99.90;;;;;;4897731;29;20024;-88
2023/08/03 01:44:30;;;;;;;6.70;3.58;;;15.90;99.90;;;;;;4898384;29;20032;-90
2023/08/03 01:46:58;;;;;;;7.90;2.90;;;15.90;99.90;;;;;;4903742;29;20070;-85
2023/08/03 01:49:28;;;;;;;4.35;2.80;;;15.90;99.90;;;;;;4897859;29;20025;-88
2023/08/03 01:51:54;;;;;;;5.38;2.42;;;15.80;99.90;;;;;;4898969;29;20024;-86
2023/08/03 01:54:20;;;;;;;3.38;2.03;;;15.80;99.90;;;;;;4898053;29;20036;-88
2023/08/03 01:56:45;;;;;;;4.85;2.53;;;15.80;99.90;;;;;;4926789;23;20029;-89
2023/08/03 01:59:11;;;;;;;3.70;1.65;;;15.70;99.90;;;;;;4959745;28;20110;-88
2023/08/03 02:01:37;;;;;;;4.65;2.17;;;15.70;99.90;;;;;;4960410;28;20033;-90
2023/08/03 02:04:03;;;;;;;5.03;2.15;;;15.80;99.90;;;;;;4963127;28;20105;-90
2023/08/03 02:06:29;;;;;;;5.55;2.10;;;15.80;99.90;;;;;;4962834;28;20468;-90
2023/08/03 02:08:54;;;;;;;5.63;1.88;;;15.80;99.90;;;;;;4964976;28;20038;-91
2023/08/03 02:11:20;;;;;;;3.25;1.98;;;15.70;99.90;;;;;;4968969;28;20316;-92
2023/08/03 02:13:45;;;;;;;2.22;1.90;;;15.70;99.90;;;;;;4957300;28;20361;-91
2023/08/03 02:16:11;;;;;;;3.15;1.48;;;15.70;99.90;;;;;;4964607;28;20051;-89
2023/08/03 02:18:38;;;;;;;4.45;2.22;;;15.70;99.90;;;;;;4971895;28;20019;-90
2023/08/03 02:21:05;;;;;;;6.78;2.15;;;15.70;99.90;;;;;;4959336;28;20027;-90
2023/08/03 02:23:31;;;;;;;3.47;2.22;;;15.70;99.90;;;;;;4967418;28;20531;-91
2023/08/03 02:25:57;;;;;;;3.55;1.50;;;15.70;99.90;;;;;;4966740;28;20046;-90
2023/08/03 02:28:22;;;;;;;2.50;1.83;;;15.70;99.90;;;;;;4957928;29;20414;-91
2023/08/03 02:30:48;;;;;;;5.47;2.03;;;15.70;99.90;;;;;;4959008;28;20026;-92
2023/08/03 02:33:14;;;;;;;2.70;1.75;;;15.70;99.90;;;;;;4962674;28;20559;-90
2023/08/03 02:35:39;;;;;;;1.90;1.75;;;15.60;99.90;;;;;;4970268;28;20026;-91
2023/08/03 02:38:06;;;;;;;3.30;2.30;;;15.60;99.90;;;;;;4960956;28;20051;-91
2023/08/03 02:40:32;;;;;;;3.40;2.05;;;15.60;99.90;;;;;;4968831;28;20026;-90
2023/08/03 02:42:58;;;;;;;3.33;2.00;;;15.60;99.90;;;;;;4959115;28;20106;-89
2023/08/03 02:45:23;;;;;;;6.97;2.25;;;15.50;99.90;;;;;;4961999;28;20519;-90
2023/08/03 02:47:49;;;;;;;4.05;1.80;;;15.50;99.90;;;;;;4958935;28;20077;-90
2023/08/03 02:50:15;;;;;;;1.70;1.55;;;15.50;99.90;;;;;;4961605;28;20019;-91
2023/08/03 02:52:40;;;;;;;7.05;2.67;;;15.50;99.90;;;;;;4964289;28;20451;-91
2023/08/03 02:55:06;;;;;;;3.17;1.65;;;15.50;99.90;;;;;;4964954;28;20039;-90
2023/08/03 02:57:32;;;;;;;3.00;1.58;;;15.50;99.90;;;;;;4957899;23;20052;-86
2023/08/03 02:59:58;;;;;;;2.53;1.90;;;15.50;99.90;;;;;;4908740;29;20020;-86
2023/08/03 03:02:23;;;;;;;5.07;1.85;;;15.50;99.90;;;;;;4908307;29;20100;-85
2023/08/03 03:04:52;;;;;;;3.75;2.00;;;15.50;99.90;;;;;;4906374;29;20624;-86
2023/08/03 03:07:17;;;;;;;8.13;2.15;;;15.50;99.90;;;;;;4906778;29;20104;-85
2023/08/03 03:09:43;;;;;;;4.63;1.50;;;15.50;99.90;;;;;;4906003;29;20112;-85
2023/08/03 03:12:09;;;;;;;5.03;1.50;;;15.60;99.90;;;;;;4904763;29;20485;-84
2023/08/03 03:14:35;;;;;;;2.53;1.70;;;15.50;99.90;;;;;;4904664;29;20130;-85
2023/08/03 03:17:01;;;;;;;4.35;1.73;;;15.60;99.90;;;;;;4904419;29;20028;-84
2023/08/03 03:19:27;;;;;;;2.60;1.27;;;15.50;99.90;;;;;;4906110;29;20028;-85
2023/08/03 03:21:53;;;;;;;1.85;1.60;;;15.50;99.90;;;;;;4905691;29;20033;-89
2023/08/03 03:24:18;;;;;;;3.33;1.60;;;15.40;99.90;;;;;;4898079;29;20396;-84
2023/08/03 03:26:44;;;;;;;3.65;1.60;;;15.50;99.90;;;;;;4900367;29;20029;-85
2023/08/03 03:29:10;;;;;;;3.33;2.10;;;15.40;99.90;;;;;;4906950;29;20107;-84
2023/08/03 03:31:35;;;;;;;3.65;1.75;;;15.40;99.90;;;;;;4900404;29;20092;-84
2023/08/03 03:34:01;;;;;;;5.25;2.10;;;15.40;99.90;;;;;;4900378;29;20115;-84
2023/08/03 03:36:27;;;;;;;3.42;1.90;;;15.40;99.90;;;;;;4907074;29;20103;-84
2023/08/03 03:38:52;;;;;;;5.47;2.10;;;15.40;99.90;;;;;;4900310;29;20068;-84
2023/08/03 03:41:18;;;;;;;4.10;1.77;;;15.40;99.90;;;;;;4900085;29;20037;-85
2023/08/03 03:43:44;;;;;;;2.95;1.98;;;15.40;99.90;;;;;;4900036;29;20060;-84
2023/08/03 03:46:09;;;;;;;9.85;2.40;;;15.40;99.90;;;;;;4900321;29;20690;-86
2023/08/03 03:48:35;;;;;;;3.45;1.90;;;15.40;99.90;;;;;;4899898;29;20027;-85
2023/08/03 03:51:00;;;;;;;7.20;2.17;;;15.30;99.90;;;;;;4900349;29;20081;-85
2023/08/03 03:53:26;;;;;;;3.72;1.90;;;15.40;99.90;;;;;;4900399;29;20055;-84
2023/08/03 03:55:52;;;;;;;4.15;2.08;;;15.30;99.90;;;;;;4906964;29;20039;-86
2023/08/03 03:58:17;;;;;;;3.83;2.03;;;15.30;99.90;;;;;;4973205;23;20582;-92
2023/08/03 04:00:43;;;;;;;2.40;1.88;;;15.30;99.90;;;;;;4973575;28;20042;-93
2023/08/03 04:03:10;;;;;;;4.82;2.50;;;15.30;99.90;;;;;;4969350;28;20016;-95
2023/08/03 04:05:36;;;;;;;3.35;2.42;;;15.30;99.90;;;;;;4975090;28;20514;-93
2023/08/03 04:08:03;;;;;;;2.92;2.28;;;15.40;99.90;;;;;;4966766;28;20024;-93
2023/08/03 04:10:29;;;;;;;5.25;2.45;;;15.30;99.90;;;;;;4952683;28;20111;-92
2023/08/03 04:12:55;;;;;;;5.20;2.40;;;15.30;99.90;;;;;;4949625;28;20032;-92
2023/08/03 04:15:21;;;;;;;5.07;2.53;;;15.40;99.90;;;;;;4954084;29;20564;-93
2023/08/03 04:17:48;;;;;;;4.72;2.53;;;15.30;99.90;;;;;;4941689;29;20111;-92
2023/08/03 04:20:17;;;;;;;5.43;2.90;;;15.30;99.90;;;;;;4942237;29;20047;-92
2023/08/03 04:22:43;;;;;;;3.53;2.50;;;15.30;99.90;;;;;;4946977;29;20019;-93
2023/08/03 04:25:09;;;;;;;5.45;2.60;;;15.30;99.90;;;;;;4954578;28;20027;-92
2023/08/03 04:27:36;;;;;;;3.92;2.45;;;15.30;99.90;;;;;;4952499;28;20063;-91
2023/08/03 04:30:02;;;;;;;8.30;2.97;;;15.30;99.90;;;;;;4967613;28;20026;-92
2023/08/03 04:32:27;;;;;;;3.90;2.50;;;15.30;99.90;;;;;;4944739;29;20074;-91
2023/08/03 04:34:53;;;;;;;4.05;2.38;;;15.30;99.90;;;;;;4938146;29;20091;-91
2023/08/03 04:37:19;;;;;;;3.38;2.35;;;15.30;99.90;;;;;;4946000;29;20028;-93
2023/08/03 04:39:45;;;;;;;5.30;2.10;;;15.30;99.90;;;;;;4940928;29;20016;-93
2023/08/03 04:42:11;;;;;;;6.70;2.50;;;15.40;99.90;;;;;;4952057;28;20035;-93
2023/08/03 04:44:37;;;;;;;4.78;2.78;;;15.40;99.90;;;;;;4960092;28;20038;-92
2023/08/03 04:47:02;;;;;;;5.13;2.63;;;15.40;99.90;;;;;;4942691;29;20055;-92
2023/08/03 04:49:28;;;;;;;9.35;3.20;;;15.30;99.90;;;;;;4945874;29;20047;-92
2023/08/03 04:51:54;;;;;;;9.05;3.08;;;15.40;99.90;;;;;;4939884;29;20031;-91
2023/08/03 04:54:20;;;;;;;9.93;2.70;;;15.40;99.90;;;;;;4940911;29;20028;-93
2023/08/03 04:56:46;;;;;;;9.30;3.00;;;15.30;99.90;;;;;;4977427;23;20011;-85
2023/08/03 04:59:12;;;;;;;7.45;3.08;;;15.30;99.90;;;;;;4961138;28;20031;-85
2023/08/03 05:01:37;;;;;;;4.57;2.67;;;15.30;99.90;;;;;;4957011;28;20019;-84
2023/08/03 05:04:03;;;;;;;4.68;2.83;;;15.40;99.90;;;;;;4960504;28;20028;-85
2023/08/03 05:06:29;;;;;;;11.02;3.30;;;15.40;99.90;;;;;;4954252;28;20023;-84
2023/08/03 05:08:55;;;;;;;3.70;2.80;;;15.40;99.90;;;;;;4961801;28;20415;-86
2023/08/03 05:11:20;;;;;;;4.75;2.63;;;15.40;99.90;;;;;;4954098;28;20038;-85
2023/08/03 05:13:46;;;;;;;6.30;3.00;;;15.50;99.90;;;;;;4953402;28;20051;-85
2023/08/03 05:16:12;;;;;;;4.88;2.38;;;15.50;99.90;;;;;;4961953;28;20494;-84
2023/08/03 05:18:37;;;;;;;4.65;2.45;;;15.50;99.90;;;;;;4955146;28;20016;-86
2023/08/03 05:21:03;;;;;;;7.28;2.72;;;15.50;99.90;;;;;;4953885;28;20031;-84
2023/08/03 05:23:29;;;;;;;4.82;2.67;;;15.50;99.90;;;;;;4953693;28;20028;-84
2023/08/03 05:25:56;;;;;;;7.63;2.80;;;15.50;99.90;;;;;;4961524;28;20026;-84
2023/08/03 05:28:22;;;;;;;6.03;2.83;;;15.50;99.90;;;;;;4946464;28;20023;-84
2023/08/03 05:30:48;;;;;;;6.75;2.90;;;15.50;99.90;;;;;;4961710;28;20508;-83
2023/08/03 05:33:14;;;;;;;5.85;2.90;;;15.50;99.90;;;;;;4954852;28;20039;-84
2023/08/03 05:35:40;;;;;;;5.28;2.50;;;15.50;99.90;;;;;;4953215;28;20020;-86
2023/08/03 05:38:06;;;;;;;8.77;2.78;;;15.60;99.90;;;;;;4955911;28;20395;-84
2023/08/03 05:40:32;;;;;;;5.00;2.95;;;15.60;99.90;;;;;;4958027;28;20027;-84
2023/08/03 05:42:58;;;;;;;7.18;2.60;;;15.60;99.90;;;;;;4954061;28;20027;-86
2023/08/03 05:45:44;;;;;;;3.95;2.55;;;15.60;99.90;;;;;;4953523;28;20015;-84
2023/08/03 05:48:20;;;;;;;6.22;2.85;;;15.70;99.90;;;;;;4959595;28;20361;-85
2023/08/03 05:50:54;;;;;;;6.65;2.90;;;15.70;99.90;;;;;;4953279;28;20082;-85
2023/08/03 05:53:20;;;;;;;5.80;2.47;;;15.70;99.90;;;;;;4960976;28;20026;-85
2023/08/03 05:55:46;;;;;;;6.30;2.65;;;15.70;99.90;;;;;;4959983;28;20031;-86
2023/08/03 05:58:14;;;;;;;4.70;2.70;;;15.80;99.90;;;;;;4982527;23;20047;-90
2023/08/03 06:00:41;;;;;;;6.47;2.60;;;15.80;99.90;;;;;;4963184;28;20050;-92
2023/08/03 06:03:13;;;;;;;4.03;2.45;;;15.90;99.90;;;;;;4955476;28;20095;-91
2023/08/03 06:05:38;;;;;;;;;;;15.90;99.90;;;;;;4967783;28;20383;-93
2023/08/03 06:08:29;;;;;;;4.78;2.10;;;15.90;99.90;;;;;;4960943;28;19906;-91
2023/08/03 06:11:00;;;;;;;6.90;2.60;;;16.00;99.90;;;;;;4957234;28;20051;-90
2023/08/03 06:13:33;;;;;;;4.93;2.13;;;16.00;99.90;;;;;;4956541;28;20031;-92
2023/08/03 06:16:07;;;;;;;5.25;2.40;;;16.00;99.90;;;;;;4960407;28;20037;-92
2023/08/03 06:18:37;;;;;;;6.22;2.15;;;16.10;99.90;;;;;;4961717;28;20019;-92
2023/08/03 06:21:04;;;;;;;6.13;2.35;;;16.10;99.90;;;;;;4968587;28;20583;-92
2023/08/03 06:23:30;;;;;;;9.93;2.75;;;16.10;99.90;;;;;;4966213;28;20062;-92
2023/08/03 06:25:57;;;;;;;6.50;2.42;;;16.10;99.90;;;;;;4966620;28;20361;-93
2023/08/03 06:28:24;;;;;;;5.07;1.85;;;16.20;99.90;;;;;;4947843;28;20428;-92
2023/08/03 06:30:51;;;;;;;8.10;2.20;;;16.20;99.90;;;;;;4964110;28;20031;-94
2023/08/03 06:33:22;;;;;;;3.95;1.98;;;16.30;99.90;;;;;;4961556;28;20030;-91
2023/08/03 06:35:52;;;;;;;8.15;2.00;;;16.40;99.90;;;;;;4961897;28;20084;-89
2023/08/03 06:38:21;;;;;;;5.20;1.90;;;16.40;99.90;;;;;;4965901;28;20030;-93
2023/08/03 06:40:48;;;;;;;3.95;1.88;;;16.50;99.90;;;;;;4956990;28;20030;-92
2023/08/03 06:43:14;;;;;;;6.10;1.75;;;16.50;99.90;;;;;;4954695;28;20480;-91
2023/08/03 06:45:41;;;;;;;8.48;2.25;;;16.60;99.90;;;;;;4967984;28;20424;-92
2023/08/03 06:48:08;;;;;;;6.18;2.38;;;16.60;99.90;;;;;;4957203;28;20027;-91
2023/08/03 06:50:34;;;;;;;9.95;1.85;;;16.70;99.90;;;;;;4958579;28;20027;-91
2023/08/03 06:53:04;;;;;;;5.43;1.80;;;16.80;99.90;;;;;;4954197;28;20137;-92
2023/08/03 06:55:30;;;;;;;5.60;2.03;;;16.80;99.90;;;;;;4955535;28;20502;-91
2023/08/03 06:57:56;;;;;;;5.57;1.70;;;16.80;99.90;;;;;;4962202;23;20048;-83
2023/08/03 07:00:23;;;;;;;3.63;1.80;;;16.90;99.90;;;;;;4929924;29;20051;-83
2023/08/03 07:02:50;;;;;;;2.72;1.52;;;17.00;99.90;;;;;;4937222;29;20026;-84
2023/08/03 07:05:16;;;;;;;3.47;1.63;;;17.20;99.90;;;;;;4935321;28;20024;-84
2023/08/03 07:07:41;;;;;;;8.15;2.25;;;17.40;99.90;;;;;;4936253;29;20082;-84
2023/08/03 07:10:07;;;;;;;6.97;2.38;;;17.60;99.90;;;;;;4945823;28;20503;-84
2023/08/03 07:12:37;;;;;;;2.88;1.52;;;17.80;99.90;;;;;;4950453;28;20031;-85
2023/08/03 07:15:04;;;;;;;7.88;1.95;;;17.80;99.90;;;;;;4950854;28;20035;-83
2023/08/03 07:17:31;;;;;;;5.47;1.70;;;17.70;99.90;;;;;;4936473;29;20155;-84
2023/08/03 07:19:56;;;;;;;6.72;1.88;;;17.70;99.90;;;;;;4949040;28;20019;-84
2023/08/03 07:22:23;;;;;;;9.75;2.63;;;17.60;99.90;;;;;;4945318;28;20024;-84
2023/08/03 07:24:49;;;;;;;4.20;1.63;;;17.70;99.90;;;;;;4942321;29;20027;-85
2023/08/03 07:27:15;;;;;;;4.13;1.90;;;17.90;99.90;;;;;;4944211;28;20075;-84
2023/08/03 07:29:42;;;;;;;4.80;1.92;;;17.90;99.90;;;;;;4946631;28;20082;-84
2023/08/03 07:32:08;;;;;;;3.67;1.60;;;18.00;99.90;;;;;;4950556;28;20027;-85
2023/08/03 07:34:34;;;;;;;7.57;1.98;;;18.20;99.90;;;;;;4951798;29;20171;-84
2023/08/03 07:37:00;;;;;;;7.03;1.50;;;18.40;99.90;;;;;;4951835;28;20106;-85
2023/08/03 07:39:25;;;;;;;3.13;1.90;;;18.50;99.90;;;;;;4940723;28;20044;-86
2023/08/03 07:41:51;;;;;;;5.28;1.80;;;18.60;99.90;;;;;;4950910;29;20023;-83
2023/08/03 07:44:18;;;;;;;7.05;1.70;;;18.50;99.50;;;;;;4949691;29;20023;-84
2023/08/03 07:46:44;;;;;;;7.82;1.67;;;18.40;99.00;;;;;;4951631;28;20110;-84
2023/08/03 07:49:10;;;;;;;7.28;1.65;;;18.30;99.60;;;;;;4951858;28;20063;-85
2023/08/03 07:51:36;;;;;;;4.82;1.75;;;18.10;99.00;;;;;;4940596;29;20060;-84
2023/08/03 07:54:02;;;;;;;5.57;1.80;;;18.00;99.90;;;;;;4951801;29;20043;-83
2023/08/03 07:56:28;;;;;;;8.95;1.85;;;17.80;99.90;;;;;;4951210;28;20476;-84
2023/08/03 07:58:54;;;;;;;6.55;1.80;;;17.70;99.90;;;;;;4943259;28;20054;-86
2023/08/03 08:01:20;;;;;;;7.22;1.77;;;17.70;99.90;;;;;;4952279;29;20019;-86
2023/08/03 08:03:46;;;;;;;4.95;1.75;;;17.80;99.90;;;;;;4951980;29;20078;-88
2023/08/03 08:06:17;;;;;;;5.40;1.45;;;17.80;99.90;;;;;;4938140;29;20028;-82
2023/08/03 08:08:43;;;;;;;3.95;1.60;;;17.80;99.90;;;;;;4945914;29;20019;-84
2023/08/03 08:11:10;;;;;;;8.65;2.13;;;17.80;99.90;;;;;;4952052;28;20551;-84
2023/08/03 08:13:35;;;;;;;4.72;2.00;;;18.00;99.60;;;;;;4952855;29;20049;-86
2023/08/03 08:16:03;;;;;;;2.97;1.45;;;18.10;99.90;;;;;;4941915;28;20031;-82
2023/08/03 08:18:32;;;;;;;9.07;2.08;;;18.10;98.80;;;;;;4946086;29;20016;-86
2023/08/03 08:21:02;;;;;;;7.57;1.65;;;17.90;99.90;;;;;;4954711;28;20027;-83
2023/08/03 08:23:29;;;;;;;6.80;1.50;;;18.10;99.60;;;;;;4954444;29;20027;-85
2023/08/03 08:25:55;;;;;;;6.38;1.60;;;18.20;99.30;;;;;;4936001;29;20027;-84
2023/08/03 08:28:21;;;;;;;6.97;2.10;;;18.30;99.00;;;;;;4987492;22;20483;-90
2023/08/03 08:30:47;;;;;;;6.68;1.70;;;18.40;97.80;;;;;;4976798;28;20534;-89
2023/08/03 08:33:17;;;;;;;5.15;1.65;;;18.50;97.80;;;;;;4976556;28;20105;-90
2023/08/03 08:35:44;;;;;;;4.05;1.80;;;18.70;98.70;;;;;;4970853;28;20031;-88
2023/08/03 08:38:11;;;;;;;4.38;1.40;;;18.60;97.50;;;;;;4964315;28;20520;-91
2023/08/03 08:40:37;;;;;;;5.05;1.52;;;18.60;97.50;;;;;;4965248;28;20027;-92
2023/08/03 08:43:03;;;;;;;4.15;1.73;;;18.60;97.60;;;;;;4956240;28;20027;-90
2023/08/03 08:45:32;;;;;;;3.28;1.73;;;18.80;98.80;;;;;;4964482;28;20019;-89
2023/08/03 08:47:58;;;;;;;4.13;2.58;;;19.30;95.80;;;;;;4963597;28;20023;-88
2023/08/03 08:50:24;;;;;;;4.00;1.48;;;19.80;96.90;;;;;;4964893;28;20034;-91
2023/08/03 08:52:51;;;;;;;4.53;1.20;;;20.50;93.10;;;;;;4973106;28;20050;-90
2023/08/03 08:55:20;;;;;;;3.80;1.45;;;21.30;92.80;;;;;;4964987;28;20047;-91
2023/08/03 08:57:46;;;;;;;3.72;1.45;;;21.70;90.40;;;;;;4971801;28;20016;-92
2023/08/03 09:00:12;;;;;;;6.25;1.60;;;21.50;89.80;;;;;;4955843;28;20113;-88
2023/08/03 09:02:38;;;;;;;3.92;1.85;;;21.40;89.00;;;;;;4957050;28;20107;-87
2023/08/03 09:05:19;;;;;;;4.68;1.30;;;21.40;91.00;;;;;;4970554;28;20529;-89
2023/08/03 09:07:58;;;;;;;3.70;1.55;;;22.00;89.70;;;;;;4960261;28;20019;-87
2023/08/03 09:10:24;;;;;;;5.25;1.40;;;22.60;86.70;;;;;;4962614;28;20266;-90
2023/08/03 09:12:50;;;;;;;2.17;1.20;;;22.60;85.80;;;;;;4955734;28;20417;-91
2023/08/03 09:15:16;;;;;;;8.23;1.45;;;22.80;81.70;;;;;;4964704;28;20480;-89
2023/08/03 09:17:46;;;;;;;3.97;1.52;;;23.10;82.60;;;;;;4961424;28;20025;-91
2023/08/03 09:20:28;;;;;;;3.92;1.40;;;23.60;78.10;;;;;;4963617;28;20085;-89
2023/08/03 09:22:53;;;;;;;;;;;24.00;79.50;;;;;;4963635;28;20095;-91
2023/08/03 09:25:19;;;;;;;4.38;1.10;;;24.20;76.30;;;;;;4956399;28;19949;-90
2023/08/03 09:27:49;;;;;;;7.57;1.42;;;24.10;77.50;;;;;;4973970;23;20035;-83
2023/08/03 09:30:15;;;;;;;3.38;1.23;;;23.90;75.50;;;;;;4943743;28;20024;-84
2023/08/03 09:32:41;;;;;;;2.75;1.17;;;24.20;76.80;;;;;;4952934;28;20362;-84
2023/08/03 09:35:19;;;;;;;2.63;1.00;;;24.80;74.60;;;;;;4954187;28;20074;-85
2023/08/03 09:37:45;;;;;;;3.90;1.00;;;26.00;70.60;;;;;;4961255;28;20020;-86
2023/08/03 09:40:13;;;;;;;3.50;0.90;;;27.10;66.90;;;;;;4946771;28;20381;-84
2023/08/03 09:42:40;;;;;;;3.03;0.90;;;28.40;64.90;;;;;;4954621;28;20023;-88
2023/08/03 09:45:08;;;;;;;5.70;1.40;;;29.10;59.10;;;;;;4954186;28;20035;-84
2023/08/03 09:47:38;;;;;;;1.42;1.10;;;28.90;58.90;;;;;;4952645;28;20384;-86
2023/08/03 09:50:04;;;;;;;4.50;1.25;;;28.50;55.70;;;;;;4954475;28;20047;-87
2023/08/03 09:52:32;;;;;;;4.00;1.27;;;28.50;59.40;;;;;;4953489;28;20387;-85
2023/08/03 09:55:13;;;;;;;2.75;1.17;;;29.30;55.00;;;;;;4953049;28;20492;-87
2023/08/03 09:57:57;;;;;;;6.88;1.42;;;30.00;55.50;;;;;;4948511;28;20051;-88
2023/08/03 10:00:24;;;;;;;3.85;1.23;;;30.70;53.80;;;;;;4953686;28;20034;-87
2023/08/03 10:02:52;;;;;;;5.25;1.65;;;31.00;50.60;;;;;;4953230;28;20031;-84
2023/08/03 10:05:20;;;;;;;2.05;1.10;;;31.60;51.70;;;;;;4952449;28;20387;-85
2023/08/03 10:08:47;;;;;;;3.00;1.15;;;31.80;46.40;;;;;;4952613;28;20492;-85
2023/08/03 10:11:13;;;;;;;3.00;1.27;;;32.30;46.90;;;;;;4931344;28;20130;-87
2023/08/03 10:13:46;;;;;;;1.55;0.90;;;31.80;45.10;;;;;;4953696;28;20030;-87
2023/08/03 10:16:16;;;;;;;2.35;0.85;;;31.10;46.10;;;;;;4954657;28;20027;-84
2023/08/03 10:18:42;;;;;;;2.33;0.95;;;29.60;46.70;;;;;;4954120;28;20469;-87
2023/08/03 10:21:09;;;;;;;1.52;0.85;;;28.80;53.30;;;;;;4953982;28;20039;-88
2023/08/03 10:23:38;;;;;;;1.70;0.85;;;28.40;51.50;;;;;;4952981;28;20023;-89
2023/08/03 10:26:05;;;;;;;4.53;1.20;;;27.90;52.90;;;;;;4953056;28;20063;-88
2023/08/03 10:28:40;;;;;;;3.72;1.35;;;27.60;55.30;;;;;;4965850;23;20058;-91
2023/08/03 10:31:11;;;;;;;3.08;1.17;;;27.60;57.30;;;;;;4977829;28;20162;-87
2023/08/03 10:33:49;;;;;;;2.03;1.10;;;28.90;52.80;;;;;;4962283;28;20106;-88
2023/08/03 10:36:34;;;;;;;2.00;1.15;;;30.30;51.40;;;;;;4962622;28;20026;-90
2023/08/03 10:39:03;;;;;;;2.40;0.93;;;31.30;48.80;;;;;;4963881;28;20025;-87
2023/08/03 10:41:51;;;;;;;5.78;1.10;;;32.00;47.70;;;;;;4959251;28;20110;-90
2023/08/03 10:44:20;;;;;;;4.15;0.80;;;32.60;45.00;;;;;;4960867;28;20035;-90
2023/08/03 10:46:48;;;;;;;1.35;0.70;;;33.40;43.20;;;;;;4960988;28;20023;-89
2023/08/03 10:49:23;;;;;;;1.23;0.80;;;33.30;42.50;;;;;;4963427;28;20079;-91
2023/08/03 10:52:17;;;;;;;1.98;0.85;;;32.20;42.30;;;;;;4970503;28;20030;-92
2023/08/03 10:54:44;;;;;;;4.45;1.20;;;30.20;41.70;;;;;;4961581;28;20125;-89
2023/08/03 10:57:12;;;;;;;4.47;1.50;;;29.50;46.60;;;;;;4966586;28;20026;-89
2023/08/03 10:59:49;;;;;;;2.75;1.27;;;29.90;47.80;;;;;;4961002;28;20473;-88
2023/08/03 11:02:20;;;;;;;3.92;1.10;;;30.80;43.80;;;;;;4953238;28;20106;-91
2023/08/03 11:04:46;;;;;;;;;;;31.10;44.70;;;;;;4958379;28;20047;-90
2023/08/03 11:07:16;;;;;;;4.35;0.95;;;31.10;43.50;;;;;;4956861;28;20550;-89
2023/08/03 11:09:44;;;;;;;4.07;0.98;;;30.80;45.50;;;;;;4960943;28;20027;-89
2023/08/03 11:12:10;;;;;;;2.03;0.80;;;30.10;44.10;;;;;;4960543;28;20093;-90
2023/08/03 11:14:37;;;;;;;5.68;1.20;;;29.70;46.60;;;;;;4962634;28;20039;-90
2023/08/03 11:17:03;;;;;;;1.65;1.45;;;28.30;46.00;;;;;;4962994;28;20019;-89
2023/08/03 11:19:32;;;;;;;1.73;1.00;;;28.00;49.50;;;;;;4961757;28;20027;-90
2023/08/03 11:22:00;;;;;;;2.00;0.95;;;27.60;52.30;;;;;;4955461;28;20161;-90
2023/08/03 11:24:29;;;;;;;3.30;1.23;;;27.10;51.90;;;;;;4961119;28;20129;-91
2023/08/03 11:29:26;;;;;;;2.78;0.82;;;26.40;53.70;;;;;;4966201;28;20062;-91
2023/08/03 11:31:52;;;;;;;2.72;1.13;;;26.10;54.90;;;;;;4980091;28;20027;-86
2023/08/03 11:34:18;;;;;;;1.98;1.20;;;26.00;53.50;;;;;;4972706;28;20046;-90
2023/08/03 11:36:48;;;;;;;2.75;1.10;;;26.50;56.90;;;;;;4972263;28;20455;-87
2023/08/03 11:39:14;;;;;;;2.65;0.88;;;28.20;53.40;;;;;;4971997;28;20415;-87
2023/08/03 11:41:41;;;;;;;2.97;1.20;;;30.00;49.80;;;;;;4973028;28;20073;-88
2023/08/03 11:44:07;;;;;;;1.08;0.80;;;31.90;47.40;;;;;;4972380;28;20387;-86
2023/08/03 11:46:33;;;;;;;1.98;1.15;;;33.10;42.70;;;;;;4975715;28;20456;-88
2023/08/03 11:49:01;;;;;;;2.65;0.85;;;33.90;41.10;;;;;;4978313;28;20054;-86
2023/08/03 11:51:38;;;;;;;4.65;1.95;;;34.50;37.40;;;;;;4979668;28;20436;-87
2023/08/03 11:54:21;;;;;;;1.98;1.00;;;34.50;37.80;;;;;;4970189;28;20031;-89
2023/08/03 11:56:46;;;;;;;1.92;1.08;;;33.30;38.30;;;;;;4970583;28;20022;-86
2023/08/03 11:59:13;;;;;;;1.45;0.90;;;31.90;39.00;;;;;;4972923;28;20035;-85
2023/08/03 12:01:49;;;;;;;2.28;1.00;;;30.40;42.10;;;;;;4975565;28;20523;-87
2023/08/03 12:04:16;;;;;;;3.50;1.02;;;29.20;46.30;;;;;;4977047;28;20034;-89
2023/08/03 12:07:02;;;;;;;1.38;1.00;;;29.60;46.40;;;;;;4975862;28;20019;-88
2023/08/03 12:09:35;;;;;;;2.22;1.17;;;29.50;45.30;;;;;;4976230;28;20042;-89
2023/08/03 12:12:05;;;;;;;2.42;1.10;;;29.10;45.50;;;;;;4976847;28;20034;-89
2023/08/03 12:14:31;;;;;;;2.22;1.10;;;27.60;45.90;;;;;;4983020;28;20041;-86
2023/08/03 12:16:57;;;;;;;2.38;1.20;;;26.70;50.60;;;;;;4975800;28;20380;-85
2023/08/03 12:19:22;;;;;;;2.63;1.10;;;26.20;51.40;;;;;;4976049;28;20490;-86
2023/08/03 12:21:48;;;;;;;6.38;1.25;;;25.80;51.40;;;;;;4982065;28;20018;-88
2023/08/03 12:24:14;;;;;;;1.60;1.15;;;25.60;51.10;;;;;;4976365;28;20460;-89
2023/08/03 12:26:40;;;;;;;2.80;0.90;;;26.40;51.70;;;;;;4976410;28;20042;-86
2023/08/03 12:29:06;;;;;;;1.10;1.00;;;28.50;48.40;;;;;;4995797;23;20047;-91
2023/08/03 12:31:32;;;;;;;0.80;0.80;;;28.60;41.80;;;;;;4980861;28;20121;-88
2023/08/03 12:33:58;;;;;;;0.93;0.75;;;29.10;44.90;;;;;;4983195;28;20400;-92
2023/08/03 12:36:27;;;;;;;1.73;1.00;;;28.90;45.10;;;;;;4988428;28;20102;-92
2023/08/03 12:38:53;;;;;;;3.67;1.05;;;28.00;45.70;;;;;;4980958;28;20023;-93
2023/08/03 12:41:19;;;;;;;1.98;1.10;;;28.20;49.30;;;;;;4984821;28;20090;-90
2023/08/03 12:43:48;;;;;;;2.45;1.00;;;28.90;46.90;;;;;;4985021;28;20019;-92
2023/08/03 12:46:14;;;;;;;1.15;1.00;;;29.20;47.20;;;;;;4977802;28;20034;-91
2023/08/03 12:48:40;;;;;;;3.25;1.27;;;28.60;44.50;;;;;;4991294;28;20435;-90
2023/08/03 12:51:05;;;;;;;1.42;1.15;;;28.50;45.80;;;;;;4995996;28;20427;-92
2023/08/03 12:53:31;;;;;;;1.40;0.80;;;28.40;48.30;;;;;;4983782;28;20023;-91